createdAt,value
2022-12-03T00:00:16.754Z,31.52
2022-12-03T00:02:45.063Z,25.27
2022-12-03T00:05:13.607Z,25.00
2022-12-03T00:07:41.966Z,29.17
2022-12-03T00:10:11.105Z,25.23
2022-12-03T00:12:40.666Z,25.27
2022-12-03T00:15:10.653Z,31.42
2022-12-03T00:17:39.019Z,28.85
2022-12-03T00:20:08.803Z,25.30
2022-12-03T00:22:37.027Z,25.40
2022-12-03T00:25:05.755Z,26.48
2022-12-03T00:27:33.835Z,27.48
2022-12-03T00:30:03.426Z,24.58
2022-12-03T00:32:31.562Z,27.00
2022-12-03T00:34:59.760Z,28.33
2022-12-03T00:37:27.935Z,29.33
2022-12-03T00:39:56.043Z,21.45
2022-12-03T00:42:24.424Z,26.83
2022-12-03T00:44:52.784Z,27.80
2022-12-03T00:47:22.778Z,24.58
2022-12-03T00:49:51.094Z,24.90
2022-12-03T00:52:19.433Z,21.25
2022-12-03T00:54:47.619Z,27.92
2022-12-03T00:57:15.746Z,30.42
2022-12-03T00:59:43.960Z,28.55
2022-12-03T01:02:12.232Z,30.35
2022-12-03T01:04:41.884Z,27.23
2022-12-03T01:07:10.133Z,27.38
2022-12-03T01:09:38.385Z,31.85
2022-12-03T01:12:07.489Z,29.42
2022-12-03T01:14:35.714Z,24.15
2022-12-03T01:17:03.850Z,25.73
2022-12-03T01:19:32.102Z,21.77
2022-12-03T01:22:02.658Z,21.67
2022-12-03T01:24:31.460Z,24.33
2022-12-03T01:26:59.610Z,27.55
2022-12-03T01:29:27.897Z,23.95
2022-12-03T01:32:13.277Z,30.17
2022-12-03T01:34:41.412Z,27.77
2022-12-03T01:37:11.453Z,28.58
2022-12-03T01:39:39.571Z,31.95
2022-12-03T01:42:10.766Z,34.28
2022-12-03T01:44:41.414Z,24.77
2022-12-03T01:47:15.014Z,26.38
2022-12-03T01:49:45.314Z,23.60
2022-12-03T01:52:17.955Z,24.10
2022-12-03T01:54:49.418Z,25.27
2022-12-03T01:57:23.911Z,20.52
2022-12-03T01:59:53.453Z,25.63
2022-12-03T02:02:25.045Z,22.45
2022-12-03T02:04:54.488Z,16.50
2022-12-03T02:07:29.257Z,18.10
2022-12-03T02:10:00.581Z,14.65
2022-12-03T02:12:32.927Z,17.85
2022-12-03T02:15:01.505Z,16.85
2022-12-03T02:17:30.099Z,16.13
2022-12-03T02:19:58.911Z,14.15
2022-12-03T02:22:39.355Z,15.85
2022-12-03T02:25:13.317Z,14.90
2022-12-03T02:27:41.972Z,13.73
2022-12-03T02:30:11.847Z,12.68
2022-12-03T02:32:40.237Z,15.45
2022-12-03T02:35:14.604Z,14.20
2022-12-03T02:37:45.003Z,12.50
2022-12-03T02:40:19.632Z,13.05
2022-12-03T02:42:47.556Z,13.07
2022-12-03T02:45:19.301Z,16.35
2022-12-03T02:47:53.126Z,13.32
2022-12-03T02:50:24.483Z,15.25
2022-12-03T02:52:55.592Z,16.65
2022-12-03T02:55:26.328Z,17.17
2022-12-03T02:57:54.917Z,16.40
2022-12-03T03:00:23.593Z,12.50
2022-12-03T03:02:51.855Z,14.00
2022-12-03T03:05:22.711Z,11.52
2022-12-03T03:07:52.137Z,13.00
2022-12-03T03:10:24.224Z,19.77
2022-12-03T03:12:55.938Z,14.02
2022-12-03T03:15:25.447Z,12.93
2022-12-03T03:17:53.675Z,13.30
2022-12-03T03:20:22.303Z,13.77
2022-12-03T03:22:50.543Z,12.38
2022-12-03T03:25:22.511Z,13.07
2022-12-03T03:27:50.748Z,12.70
2022-12-03T03:30:20.645Z,14.70
2022-12-03T03:32:48.827Z,14.60
2022-12-03T03:35:18.089Z,21.83
2022-12-03T03:37:46.502Z,14.27
2022-12-03T03:40:14.805Z,15.02
2022-12-03T03:42:43.265Z,12.55
2022-12-03T03:45:11.908Z,15.32
2022-12-03T03:47:42.363Z,10.65
2022-12-03T03:50:13.358Z,13.68
2022-12-03T03:52:42.717Z,15.98
2022-12-03T03:55:11.966Z,14.02
2022-12-03T03:57:40.945Z,12.90
2022-12-03T04:00:11.066Z,16.17
2022-12-03T04:02:39.595Z,11.10
2022-12-03T04:05:16.966Z,16.05
2022-12-03T04:07:45.170Z,12.48
2022-12-03T04:10:32.139Z,18.25
2022-12-03T04:13:00.614Z,13.02
2022-12-03T04:15:29.462Z,12.00
2022-12-03T04:18:14.944Z,13.65
2022-12-03T04:20:44.565Z,13.65
2022-12-03T04:23:11.733Z,11.20
2022-12-03T04:25:57.387Z,11.38
2022-12-03T04:28:42.634Z,15.27
2022-12-03T04:31:24.863Z,14.55
2022-12-03T04:34:11.005Z,15.25
2022-12-03T04:36:40.847Z,13.38
2022-12-03T04:39:09.094Z,11.85
2022-12-03T04:41:37.419Z,11.05
2022-12-03T04:44:23.175Z,14.27
2022-12-03T04:46:51.397Z,14.25
2022-12-03T04:49:19.479Z,13.02
2022-12-03T04:51:49.160Z,11.57
2022-12-03T04:54:17.398Z,15.82
2022-12-03T04:56:45.689Z,14.80
2022-12-03T04:59:16.343Z,9.43
2022-12-03T05:01:45.492Z,11.70
2022-12-03T05:04:13.968Z,9.63
2022-12-03T05:06:43.570Z,12.13
2022-12-03T05:09:13.674Z,11.32
2022-12-03T05:11:43.032Z,11.43
2022-12-03T05:14:12.098Z,11.38
2022-12-03T05:16:40.715Z,9.75
2022-12-03T05:19:10.229Z,14.00
2022-12-03T05:21:37.372Z,13.18
2022-12-03T05:24:06.371Z,10.25
2022-12-03T05:26:35.940Z,9.85
2022-12-03T05:29:04.411Z,9.02
2022-12-03T05:31:32.625Z,11.68
2022-12-03T05:34:00.777Z,9.25
2022-12-03T05:36:28.867Z,10.38
2022-12-03T05:38:56.927Z,13.13
2022-12-03T05:41:42.135Z,10.38
2022-12-03T05:44:15.023Z,8.60
2022-12-03T05:46:45.918Z,10.40
2022-12-03T05:49:14.063Z,12.15
2022-12-03T05:51:43.092Z,9.52
2022-12-03T05:54:11.590Z,9.73
2022-12-03T05:56:39.734Z,9.18
2022-12-03T05:59:07.874Z,10.45
2022-12-03T06:01:37.323Z,11.57
2022-12-03T06:04:05.820Z,9.38
2022-12-03T06:06:34.101Z,11.00
2022-12-03T06:09:02.273Z,10.98
2022-12-03T06:11:30.447Z,10.63
2022-12-03T06:13:58.561Z,11.95
2022-12-03T06:16:26.751Z,10.65
2022-12-03T06:18:56.878Z,12.38
2022-12-03T06:21:24.975Z,13.25
2022-12-03T06:23:53.109Z,13.07
2022-12-03T06:26:21.239Z,11.25
2022-12-03T06:28:49.490Z,11.10
2022-12-03T06:31:17.724Z,9.15
2022-12-03T06:33:45.901Z,14.90
2022-12-03T06:36:18.824Z,10.38
2022-12-03T06:38:50.922Z,9.32
2022-12-03T06:41:19.109Z,9.75
2022-12-03T06:43:47.262Z,8.82
2022-12-03T06:46:15.420Z,9.70
2022-12-03T06:48:43.604Z,10.45
2022-12-03T06:51:11.744Z,9.23
2022-12-03T06:53:41.280Z,8.35
2022-12-03T06:56:09.996Z,11.02
2022-12-03T06:58:38.156Z,8.07
2022-12-03T07:01:07.004Z,12.27
2022-12-03T07:03:35.249Z,8.07
2022-12-03T07:06:03.401Z,10.23
2022-12-03T07:08:31.490Z,7.88
2022-12-03T07:11:01.016Z,9.13
2022-12-03T07:13:29.731Z,9.05
2022-12-03T07:15:57.963Z,8.20
2022-12-03T07:18:26.188Z,9.00
2022-12-03T07:20:54.397Z,8.30
2022-12-03T07:23:22.571Z,7.57
2022-12-03T07:25:50.663Z,9.80
2022-12-03T07:28:20.134Z,5.97
2022-12-03T07:30:48.332Z,8.27
2022-12-03T07:33:16.482Z,9.55
2022-12-03T07:35:44.784Z,9.48
2022-12-03T07:38:12.955Z,10.10
2022-12-03T07:40:41.095Z,11.02
2022-12-03T07:43:09.222Z,12.30
2022-12-03T07:45:38.839Z,10.02
2022-12-03T07:48:07.440Z,11.88
2022-12-03T07:50:36.258Z,7.88
2022-12-03T07:53:04.439Z,10.90
2022-12-03T07:55:32.662Z,11.45
2022-12-03T07:58:00.933Z,12.40
2022-12-03T08:00:29.183Z,8.70
2022-12-03T08:02:58.769Z,11.38
2022-12-03T08:05:29.550Z,8.45
2022-12-03T08:07:57.711Z,9.20
2022-12-03T08:10:26.997Z,9.07
2022-12-03T08:12:57.350Z,7.40
2022-12-03T08:15:26.485Z,8.52
2022-12-03T08:17:58.945Z,8.32
2022-12-03T08:20:29.543Z,10.55
2022-12-03T08:22:58.593Z,9.18
2022-12-03T08:25:28.151Z,7.25
2022-12-03T08:28:01.645Z,6.80
2022-12-03T08:30:29.937Z,8.60
2022-12-03T08:33:00.702Z,10.82
2022-12-03T08:35:32.166Z,7.95
2022-12-03T08:38:03.357Z,6.95
2022-12-03T08:40:36.418Z,8.60
2022-12-03T08:43:16.504Z,8.98
2022-12-03T08:45:44.914Z,14.48
2022-12-03T08:48:25.996Z,10.85
2022-12-03T08:50:55.591Z,12.82
2022-12-03T08:53:30.012Z,8.13
2022-12-03T08:56:00.364Z,7.47
2022-12-03T08:58:35.177Z,10.25
2022-12-03T09:01:18.958Z,8.35
2022-12-03T09:03:51.585Z,12.23
2022-12-03T09:06:20.103Z,9.52
2022-12-03T09:08:48.530Z,9.75
2022-12-03T09:11:16.900Z,13.73
2022-12-03T09:13:45.117Z,11.73
2022-12-03T09:16:13.398Z,10.43
2022-12-03T09:18:41.543Z,12.57
2022-12-03T09:21:11.042Z,14.45
2022-12-03T09:23:39.182Z,15.18
2022-12-03T09:26:07.553Z,12.27
2022-12-03T09:28:35.670Z,15.77
2022-12-03T09:31:04.203Z,14.15
2022-12-03T09:33:32.549Z,15.05
2022-12-03T09:36:00.834Z,13.30
2022-12-03T09:38:30.403Z,17.67
2022-12-03T09:40:58.777Z,11.63
2022-12-03T09:43:49.405Z,13.55
2022-12-03T09:46:18.792Z,11.73
2022-12-03T09:48:47.114Z,12.80
2022-12-03T09:51:16.047Z,12.48
2022-12-03T09:53:46.086Z,11.18
2022-12-03T09:56:20.066Z,12.98
2022-12-03T09:58:48.639Z,11.70
2022-12-03T10:01:17.541Z,12.88
2022-12-03T10:03:48.557Z,13.93
2022-12-03T10:06:19.568Z,11.32
2022-12-03T10:08:52.138Z,11.68
2022-12-03T10:11:22.628Z,12.95
2022-12-03T10:13:53.680Z,15.90
2022-12-03T10:16:22.315Z,11.20
2022-12-03T10:18:53.270Z,11.35
2022-12-03T10:21:25.549Z,15.50
2022-12-03T10:24:23.838Z,20.75
2022-12-03T10:26:53.538Z,13.68
2022-12-03T10:29:26.980Z,18.40
2022-12-03T10:32:01.768Z,17.58
2022-12-03T10:34:31.758Z,12.23
2022-12-03T10:37:14.940Z,16.83
2022-12-03T10:39:59.442Z,15.00
2022-12-03T10:42:29.145Z,16.48
2022-12-03T10:45:19.059Z,14.23
2022-12-03T10:48:06.923Z,12.65
2022-12-03T10:50:36.484Z,16.13
2022-12-03T10:53:05.605Z,14.02
2022-12-03T10:55:40.590Z,16.65
2022-12-03T10:58:19.066Z,16.20
2022-12-03T11:00:47.525Z,22.83
2022-12-03T11:03:20.902Z,11.95
2022-12-03T11:05:49.264Z,14.75
2022-12-03T11:08:19.654Z,15.38
2022-12-03T11:10:57.595Z,16.30
2022-12-03T11:13:48.370Z,17.70
2022-12-03T11:17:12.343Z,12.45
2022-12-03T11:19:49.673Z,13.55
2022-12-03T11:22:41.561Z,14.48
2022-12-03T11:25:37.992Z,12.57
2022-12-03T11:28:34.268Z,14.43
2022-12-03T11:31:09.187Z,13.05
2022-12-03T11:33:39.459Z,10.93
2022-12-03T11:36:16.052Z,11.93
2022-12-03T11:38:53.838Z,14.77
2022-12-03T11:41:28.126Z,13.20
2022-12-03T11:44:20.076Z,14.93
2022-12-03T11:46:49.622Z,11.48
2022-12-03T11:49:25.975Z,10.40
2022-12-03T11:51:54.202Z,14.02
2022-12-03T11:54:24.596Z,11.52
2022-12-03T11:56:54.114Z,10.30
2022-12-03T11:59:23.690Z,12.10
2022-12-03T12:01:51.792Z,10.48
2022-12-03T12:04:32.043Z,12.73
2022-12-03T12:07:01.117Z,10.90
2022-12-03T12:09:53.079Z,11.75
2022-12-03T12:12:32.241Z,11.32
2022-12-03T12:15:01.755Z,11.10
2022-12-03T12:17:32.393Z,11.85
2022-12-03T12:20:23.599Z,10.88
2022-12-03T12:22:51.886Z,13.90
2022-12-03T12:25:40.793Z,12.05
2022-12-03T12:28:09.481Z,11.57
2022-12-03T12:30:40.290Z,10.55
2022-12-03T12:33:23.315Z,10.82
2022-12-03T12:35:52.564Z,12.57
2022-12-03T12:38:22.673Z,12.48
2022-12-03T12:40:51.573Z,13.52
2022-12-03T12:43:25.286Z,12.60
2022-12-03T12:45:56.471Z,13.90
2022-12-03T12:48:27.228Z,12.48
2022-12-03T12:51:01.375Z,12.80
2022-12-03T12:53:32.341Z,15.10
2022-12-03T12:56:03.119Z,15.45
2022-12-03T12:58:33.590Z,20.85
2022-12-03T13:01:09.195Z,18.48
2022-12-03T13:03:39.942Z,16.95
2022-12-03T13:06:15.351Z,16.08
2022-12-03T13:08:46.588Z,15.65
2022-12-03T13:11:29.895Z,14.68
2022-12-03T13:13:58.031Z,16.70
2022-12-03T13:16:30.053Z,14.35
2022-12-03T13:18:59.796Z,14.63
2022-12-03T13:21:39.132Z,12.10
2022-12-03T13:24:29.902Z,15.95
2022-12-03T13:26:58.520Z,16.55
2022-12-03T13:29:28.744Z,20.63
2022-12-03T13:32:00.380Z,15.40
2022-12-03T13:34:32.543Z,15.43
2022-12-03T13:37:01.767Z,20.58
2022-12-03T13:39:33.408Z,21.85
2022-12-03T13:42:34.111Z,17.75
2022-12-03T13:45:07.514Z,13.35
2022-12-03T13:47:37.672Z,13.65
2022-12-03T13:50:26.542Z,14.63
2022-12-03T13:52:55.057Z,17.27
2022-12-03T13:55:27.767Z,13.88
2022-12-03T13:57:56.055Z,15.07
2022-12-03T14:00:25.071Z,14.82
2022-12-03T14:02:54.580Z,12.70
2022-12-03T14:05:22.806Z,14.43
2022-12-03T14:07:51.213Z,18.08
2022-12-03T14:10:19.694Z,18.83
2022-12-03T14:12:48.058Z,14.32
2022-12-03T14:15:16.578Z,15.00
2022-12-03T14:17:44.756Z,10.00
2022-12-03T14:20:16.564Z,11.93
2022-12-03T14:22:44.842Z,13.20
2022-12-03T14:25:13.508Z,13.07
2022-12-03T14:27:41.603Z,16.92
2022-12-03T14:30:10.854Z,14.32
2022-12-03T14:32:38.962Z,13.93
2022-12-03T14:35:10.061Z,11.98
2022-12-03T14:37:39.860Z,16.00
2022-12-03T14:40:09.305Z,13.30
2022-12-03T14:42:37.741Z,16.55
2022-12-03T14:45:06.945Z,15.05
2022-12-03T14:47:35.225Z,18.17
2022-12-03T14:50:03.599Z,17.45
2022-12-03T14:52:31.828Z,16.67
2022-12-03T14:55:01.309Z,18.05
2022-12-03T14:57:29.546Z,15.60
2022-12-03T14:59:58.002Z,16.95
2022-12-03T15:02:26.305Z,18.17
2022-12-03T15:04:54.584Z,20.55
2022-12-03T15:07:22.661Z,17.00
2022-12-03T15:09:50.850Z,15.80
2022-12-03T15:12:20.492Z,19.35
2022-12-03T15:14:48.752Z,16.15
2022-12-03T15:17:18.767Z,18.85
2022-12-03T15:19:51.922Z,16.10
2022-12-03T15:22:20.262Z,14.50
2022-12-03T15:24:48.374Z,19.23
2022-12-03T15:27:16.466Z,19.92
2022-12-03T15:29:46.014Z,22.35
2022-12-03T15:32:15.148Z,19.10
2022-12-03T15:34:43.294Z,16.88
2022-12-03T15:37:11.686Z,16.67
2022-12-03T15:39:46.575Z,16.60
2022-12-03T15:42:16.755Z,17.33
2022-12-03T15:44:48.628Z,16.33
2022-12-03T15:47:16.854Z,18.55
2022-12-03T15:49:44.956Z,16.13
2022-12-03T15:52:13.037Z,17.30
2022-12-03T15:54:41.166Z,15.95
2022-12-03T15:57:09.283Z,19.88
2022-12-03T15:59:37.374Z,21.67
2022-12-03T16:02:07.043Z,19.70
2022-12-03T16:04:36.844Z,19.13
2022-12-03T16:07:04.965Z,19.95
2022-12-03T16:09:33.073Z,19.77
2022-12-03T16:12:01.150Z,19.42
2022-12-03T16:14:29.281Z,18.55
2022-12-03T16:16:58.886Z,22.27
2022-12-03T16:19:28.476Z,24.15
2022-12-03T16:21:56.674Z,19.80
2022-12-03T16:24:24.796Z,22.70
2022-12-03T16:26:52.911Z,21.73
2022-12-03T16:29:21.087Z,18.73
2022-12-03T16:31:49.287Z,20.00
2022-12-03T16:34:17.466Z,19.85
2022-12-03T16:36:47.010Z,23.00
2022-12-03T16:39:17.046Z,25.13
2022-12-03T16:41:45.508Z,21.33
2022-12-03T16:44:31.952Z,18.65
2022-12-03T16:47:01.473Z,18.80
2022-12-03T16:49:29.901Z,21.63
2022-12-03T16:51:59.362Z,18.90
2022-12-03T16:54:27.552Z,20.45
2022-12-03T16:56:55.645Z,19.17
2022-12-03T16:59:23.783Z,23.98
2022-12-03T17:01:51.958Z,27.13
2022-12-03T17:04:20.159Z,23.27
2022-12-03T17:06:48.406Z,21.73
2022-12-03T17:09:17.882Z,22.90
2022-12-03T17:11:46.167Z,23.67
2022-12-03T17:14:14.290Z,19.92
2022-12-03T17:16:42.513Z,20.65
2022-12-03T17:19:10.595Z,18.10
2022-12-03T17:21:38.722Z,17.73
2022-12-03T17:24:07.343Z,19.15
2022-12-03T17:26:37.256Z,20.50
2022-12-03T17:29:05.452Z,24.35
2022-12-03T17:31:38.431Z,17.77
2022-12-03T17:34:09.660Z,20.25
2022-12-03T17:36:37.869Z,17.58
2022-12-03T17:39:05.973Z,19.83
2022-12-03T17:41:34.099Z,19.98
2022-12-03T17:44:09.771Z,20.58
2022-12-03T17:46:39.071Z,23.52
2022-12-03T17:49:07.292Z,20.10
2022-12-03T17:51:35.414Z,20.27
2022-12-03T17:54:03.563Z,21.27
2022-12-03T17:56:31.737Z,21.90
2022-12-03T17:58:59.945Z,26.52
2022-12-03T18:01:32.274Z,16.58
2022-12-03T18:04:00.572Z,17.25
2022-12-03T18:06:28.779Z,16.55
2022-12-03T18:08:56.962Z,18.40
2022-12-03T18:11:25.334Z,20.40
2022-12-03T18:13:53.464Z,17.25
2022-12-03T18:16:21.724Z,13.43
2022-12-03T18:18:56.221Z,13.05
2022-12-03T18:21:25.238Z,14.32
2022-12-03T18:23:54.466Z,18.25
2022-12-03T18:26:22.717Z,15.13
2022-12-03T18:28:51.013Z,17.08
2022-12-03T18:31:21.401Z,17.90
2022-12-03T18:33:52.696Z,19.85
2022-12-03T18:36:24.222Z,21.90
2022-12-03T18:38:55.253Z,18.40
2022-12-03T18:41:25.380Z,21.92
2022-12-03T18:43:53.680Z,20.50
2022-12-03T18:46:53.071Z,18.42
2022-12-03T18:49:11.881Z,17.02
2022-12-03T18:51:40.145Z,18.83
2022-12-03T18:54:12.819Z,20.27
2022-12-03T18:56:41.148Z,22.67
2022-12-03T18:59:09.603Z,20.60
2022-12-03T19:01:38.170Z,20.95
2022-12-03T19:04:06.553Z,19.30
2022-12-03T19:06:36.099Z,20.05
2022-12-03T19:09:04.375Z,22.50
2022-12-03T19:11:33.998Z,20.13
2022-12-03T19:14:03.073Z,20.92
2022-12-03T19:16:31.314Z,18.55
2022-12-03T19:18:59.602Z,21.48
2022-12-03T19:21:32.254Z,23.40
2022-12-03T19:24:23.880Z,20.08
2022-12-03T19:26:55.278Z,24.05
2022-12-03T19:29:24.064Z,22.23
2022-12-03T19:31:52.574Z,24.20
2022-12-03T19:34:21.099Z,23.38
2022-12-03T19:36:49.259Z,19.33
2022-12-03T19:39:18.824Z,19.27
2022-12-03T19:41:47.086Z,21.70
2022-12-03T19:44:16.818Z,24.85
2022-12-03T19:46:45.710Z,17.38
2022-12-03T19:49:16.676Z,20.17
2022-12-03T19:51:44.903Z,19.65
2022-12-03T19:54:13.803Z,19.30
2022-12-03T19:56:43.402Z,20.38
2022-12-03T19:59:13.413Z,18.95
2022-12-03T20:01:43.473Z,25.20
2022-12-03T20:04:13.010Z,19.27
2022-12-03T20:06:41.186Z,18.75
2022-12-03T20:09:12.270Z,19.38
2022-12-03T20:11:42.719Z,19.23
2022-12-03T20:14:14.816Z,21.42
2022-12-03T20:16:43.301Z,19.80
2022-12-03T20:19:13.552Z,23.08
2022-12-03T20:21:42.715Z,21.85
2022-12-03T20:24:13.790Z,20.42
2022-12-03T20:26:42.520Z,20.27
2022-12-03T20:29:12.105Z,24.60
2022-12-03T20:31:40.348Z,20.35
2022-12-03T20:34:08.690Z,24.42
2022-12-03T20:36:37.200Z,22.00
2022-12-03T20:39:08.074Z,18.92
2022-12-03T20:41:37.230Z,19.15
2022-12-03T20:44:06.103Z,22.30
2022-12-03T20:46:36.273Z,24.23
2022-12-03T20:49:05.694Z,22.95
2022-12-03T20:51:33.893Z,17.65
2022-12-03T20:54:02.746Z,21.35
2022-12-03T20:56:32.503Z,18.42
2022-12-03T20:59:01.883Z,19.45
2022-12-03T21:01:30.246Z,22.42
2022-12-03T21:04:00.013Z,19.00
2022-12-03T21:06:30.061Z,19.50
2022-12-03T21:09:00.709Z,21.38
2022-12-03T21:11:30.910Z,22.27
2022-12-03T21:13:59.813Z,21.17
2022-12-03T21:16:59.058Z,20.05
2022-12-03T21:19:21.874Z,19.60
2022-12-03T21:21:50.132Z,21.60
2022-12-03T21:24:18.323Z,21.02
2022-12-03T21:26:46.455Z,23.05
2022-12-03T21:29:14.600Z,22.60
2022-12-03T21:31:42.810Z,23.75
2022-12-03T21:34:10.982Z,21.00
2022-12-03T21:36:40.684Z,21.20
2022-12-03T21:39:09.349Z,21.85
2022-12-03T21:41:37.493Z,22.13
2022-12-03T21:44:05.742Z,23.15
2022-12-03T21:47:11.018Z,23.35
2022-12-03T21:49:22.836Z,20.60
2022-12-03T21:51:52.397Z,21.08
2022-12-03T21:54:20.672Z,21.48
2022-12-03T21:56:48.749Z,19.45
2022-12-03T21:59:16.911Z,21.63
2022-12-03T22:01:47.276Z,25.92
2022-12-03T22:04:15.819Z,19.70
2022-12-03T22:06:43.981Z,19.40
2022-12-03T22:09:13.501Z,25.15
2022-12-03T22:11:42.168Z,22.30
2022-12-03T22:14:10.378Z,22.45
2022-12-03T22:16:38.529Z,18.05
2022-12-03T22:19:06.723Z,19.05
2022-12-03T22:21:35.654Z,20.23
2022-12-03T22:24:03.882Z,21.38
2022-12-03T22:26:35.221Z,15.93
2022-12-03T22:29:03.518Z,16.88
2022-12-03T22:31:31.664Z,15.00
2022-12-03T22:33:59.805Z,23.13
2022-12-03T22:36:28.118Z,19.83
2022-12-03T22:38:56.324Z,19.10
2022-12-03T22:41:24.609Z,15.55
2022-12-03T22:43:54.195Z,20.58
2022-12-03T22:46:22.912Z,15.32
2022-12-03T22:48:51.077Z,15.13
2022-12-03T22:51:21.332Z,17.35
2022-12-03T22:53:49.839Z,17.65
2022-12-03T22:56:18.033Z,15.88
2022-12-03T22:58:46.142Z,17.65
2022-12-03T23:01:23.744Z,16.77
2022-12-03T23:03:52.349Z,23.10
2022-12-03T23:06:21.003Z,16.65
2022-12-03T23:08:49.502Z,14.90
2022-12-03T23:11:18.847Z,15.60
2022-12-03T23:13:47.207Z,16.95
2022-12-03T23:16:18.413Z,17.27
2022-12-03T23:18:48.083Z,17.58
2022-12-03T23:21:18.026Z,15.57
2022-12-03T23:23:46.164Z,14.93
2022-12-03T23:26:15.575Z,14.38
2022-12-03T23:28:45.778Z,15.95
2022-12-03T23:31:17.575Z,16.15
2022-12-03T23:33:47.727Z,12.38
2022-12-03T23:36:16.245Z,15.20
2022-12-03T23:38:44.698Z,14.65
2022-12-03T23:41:15.655Z,14.35
2022-12-03T23:43:44.431Z,15.68
2022-12-03T23:46:14.844Z,17.63
2022-12-03T23:48:43.511Z,15.55
2022-12-03T23:51:15.057Z,17.13
2022-12-03T23:53:43.692Z,14.48
2022-12-03T23:56:15.800Z,12.27
2022-12-03T23:58:44.506Z,12.95
